createdAt,value
2019-04-06T00:01:50.707Z,0.60
2019-04-06T00:04:20.377Z,0.50
2019-04-06T00:06:49.479Z,0.50
2019-04-06T00:09:18.716Z,0.50
2019-04-06T00:11:48.190Z,0.50
2019-04-06T00:14:17.510Z,0.50
2019-04-06T00:16:46.465Z,0.50
2019-04-06T00:19:16.398Z,0.50
2019-04-06T00:21:45.778Z,0.60
2019-04-06T00:24:14.610Z,0.50
2019-04-06T00:26:43.999Z,0.50
2019-04-06T00:29:13.138Z,0.50
2019-04-06T00:31:55.564Z,0.50
2019-04-06T00:34:25.087Z,0.50
2019-04-06T00:36:54.294Z,0.50
2019-04-06T00:39:23.395Z,0.50
2019-04-06T00:41:52.894Z,0.40
2019-04-06T00:44:21.881Z,0.50
2019-04-06T00:46:51.910Z,0.50
2019-04-06T00:49:21.284Z,0.40
2019-04-06T00:51:50.357Z,0.40
2019-04-06T00:54:19.427Z,0.30
2019-04-06T00:56:48.615Z,0.40
2019-04-06T00:59:17.531Z,0.30
2019-04-06T01:01:46.519Z,0.20
2019-04-06T01:04:15.612Z,0.20
2019-04-06T01:06:44.701Z,0.20
2019-04-06T01:09:14.307Z,0.20
2019-04-06T01:11:43.708Z,0.30
2019-04-06T01:14:12.534Z,0.20
2019-04-06T01:16:41.678Z,0.20
2019-04-06T01:19:10.671Z,0.10
2019-04-06T01:21:39.621Z,0.10
2019-04-06T01:24:08.794Z,0.00
2019-04-06T01:26:37.955Z,0.00
2019-04-06T01:29:07.187Z,-0.10
2019-04-06T01:31:36.370Z,-0.20
2019-04-06T01:34:05.783Z,-0.20
2019-04-06T01:36:35.071Z,-0.20
2019-04-06T01:39:05.907Z,-0.20
2019-04-06T01:41:35.129Z,-0.20
2019-04-06T01:44:04.408Z,-0.20
2019-04-06T01:46:33.675Z,-0.20
2019-04-06T01:49:03.034Z,-0.30
2019-04-06T01:51:32.198Z,-0.30
2019-04-06T01:54:01.474Z,-0.30
2019-04-06T01:56:30.310Z,-0.40
2019-04-06T01:58:59.680Z,-0.40
2019-04-06T02:01:33.946Z,-0.40
2019-04-06T02:04:02.790Z,-0.40
2019-04-06T02:06:31.973Z,-0.40
2019-04-06T02:09:01.435Z,-0.30
2019-04-06T02:11:30.766Z,-0.30
2019-04-06T02:14:00.238Z,-0.20
2019-04-06T02:16:29.337Z,-0.10
2019-04-06T02:18:58.175Z,0.00
2019-04-06T02:21:27.246Z,0.00
2019-04-06T02:23:56.345Z,0.10
2019-04-06T02:26:30.629Z,0.00
2019-04-06T02:28:56.689Z,0.00
2019-04-06T02:31:54.287Z,0.00
2019-04-06T02:34:58.045Z,0.20
2019-04-06T02:37:43.235Z,0.20
2019-04-06T02:40:49.861Z,0.20
2019-04-06T02:43:21.708Z,0.00
2019-04-06T02:45:50.832Z,-0.10
2019-04-06T02:48:20.021Z,-0.20
2019-04-06T02:50:49.619Z,-0.40
2019-04-06T02:53:18.991Z,-0.50
2019-04-06T02:55:47.923Z,-0.60
2019-04-06T02:58:17.297Z,-0.70
2019-04-06T03:00:46.514Z,-0.80
2019-04-06T03:03:16.116Z,-0.80
2019-04-06T03:05:45.410Z,-0.90
2019-04-06T03:08:14.815Z,-0.80
2019-04-06T03:10:44.234Z,-0.70
2019-04-06T03:13:13.468Z,-0.60
2019-04-06T03:15:44.066Z,-0.50
2019-04-06T03:18:13.066Z,-0.50
2019-04-06T03:20:42.294Z,-0.50
2019-04-06T03:23:11.273Z,-0.50
2019-04-06T03:25:40.135Z,-0.60
2019-04-06T03:28:08.962Z,-0.70
2019-04-06T03:30:38.463Z,-0.70
2019-04-06T03:33:07.473Z,-0.80
2019-04-06T03:35:36.691Z,-0.90
2019-04-06T03:38:06.328Z,-0.90
2019-04-06T03:40:35.723Z,-0.90
2019-04-06T03:43:05.029Z,-0.80
2019-04-06T03:45:34.011Z,-0.80
2019-04-06T03:48:03.127Z,-0.80
2019-04-06T03:50:32.031Z,-0.90
2019-04-06T03:53:00.903Z,-0.90
2019-04-06T03:55:30.023Z,-1.00
2019-04-06T03:57:59.638Z,-1.00
2019-04-06T04:00:28.658Z,-1.00
2019-04-06T04:02:58.435Z,-1.00
2019-04-06T04:05:27.385Z,-1.00
2019-04-06T04:07:56.243Z,-1.00
2019-04-06T04:10:36.944Z,-0.90
2019-04-06T04:13:06.394Z,-1.00
2019-04-06T04:15:35.561Z,-1.00
2019-04-06T04:18:04.771Z,-0.90
2019-04-06T04:20:33.991Z,-0.90
2019-04-06T04:23:03.276Z,-0.90
2019-04-06T04:25:32.415Z,-0.90
2019-04-06T04:28:01.618Z,-0.90
2019-04-06T04:30:32.928Z,-0.90
2019-04-06T04:33:01.913Z,-1.00
2019-04-06T04:35:31.058Z,-1.00
2019-04-06T04:37:59.927Z,-0.90
2019-04-06T04:40:29.045Z,-0.80
2019-04-06T04:42:58.466Z,-0.70
2019-04-06T04:45:28.472Z,-0.60
2019-04-06T04:47:58.065Z,-0.70
2019-04-06T04:50:27.635Z,-0.70
2019-04-06T04:52:56.832Z,-0.80
2019-04-06T04:55:25.694Z,-0.80
2019-04-06T04:57:54.810Z,-0.90
2019-04-06T05:00:24.415Z,-0.90
2019-04-06T05:02:53.293Z,-0.80
2019-04-06T05:05:22.704Z,-0.70
2019-04-06T05:07:52.183Z,-0.60
2019-04-06T05:10:21.014Z,-0.40
2019-04-06T05:12:50.383Z,-0.30
2019-04-06T05:15:29.267Z,-0.40
2019-04-06T05:17:58.638Z,-0.40
2019-04-06T05:20:27.980Z,-0.40
2019-04-06T05:22:56.950Z,-0.40
2019-04-06T05:25:26.019Z,-0.30
2019-04-06T05:27:55.346Z,-0.20
2019-04-06T05:30:24.435Z,0.00
2019-04-06T05:32:53.831Z,0.30
2019-04-06T05:35:22.790Z,0.60
2019-04-06T05:37:52.331Z,0.80
2019-04-06T05:40:21.530Z,1.10
2019-04-06T05:42:50.711Z,1.30
2019-04-06T05:45:19.771Z,1.50
2019-04-06T05:47:49.080Z,1.60
2019-04-06T05:50:18.673Z,1.80
2019-04-06T05:52:48.388Z,2.20
2019-04-06T05:55:17.992Z,2.50
2019-04-06T05:57:47.151Z,2.90
2019-04-06T06:00:16.327Z,3.00
2019-04-06T06:02:45.760Z,3.20
2019-04-06T06:05:14.920Z,3.20
2019-04-06T06:07:44.448Z,3.10
2019-04-06T06:10:13.819Z,3.20
2019-04-06T06:12:42.739Z,3.30
2019-04-06T06:15:12.173Z,3.50
2019-04-06T06:17:41.330Z,3.90
2019-04-06T06:20:10.855Z,4.00
2019-04-06T06:22:39.979Z,4.20
2019-04-06T06:25:09.787Z,4.40
2019-04-06T06:27:39.564Z,4.60
2019-04-06T06:30:09.590Z,5.00
2019-04-06T06:32:38.806Z,5.20
2019-04-06T06:35:08.184Z,5.50
2019-04-06T06:37:37.911Z,5.70
2019-04-06T06:40:06.973Z,5.90
2019-04-06T06:42:36.703Z,6.20
2019-04-06T06:45:06.183Z,6.40
2019-04-06T06:47:35.362Z,6.60
2019-04-06T06:50:05.033Z,6.60
2019-04-06T06:52:34.278Z,6.40
2019-04-06T06:55:03.516Z,6.60
2019-04-06T06:57:33.017Z,6.80
2019-04-06T07:00:02.113Z,6.80
2019-04-06T07:02:31.279Z,6.80
2019-04-06T07:05:00.917Z,6.60
2019-04-06T07:07:30.087Z,6.50
2019-04-06T07:10:05.056Z,6.80
2019-04-06T07:12:31.151Z,7.10
2019-04-06T07:15:01.075Z,7.20
2019-04-06T07:17:30.166Z,7.30
2019-04-06T07:19:59.184Z,7.40
2019-04-06T07:22:28.278Z,7.40
2019-04-06T07:24:57.807Z,7.70
2019-04-06T07:27:27.079Z,8.00
2019-04-06T07:29:56.342Z,8.40
2019-04-06T07:32:25.471Z,8.80
2019-04-06T07:34:54.820Z,8.80
2019-04-06T07:37:24.618Z,8.50
2019-04-06T07:39:53.537Z,8.70
2019-04-06T07:42:22.699Z,8.80
2019-04-06T07:44:51.687Z,9.00
2019-04-06T07:47:20.971Z,9.00
2019-04-06T07:49:50.684Z,9.10
2019-04-06T07:52:20.104Z,9.00
2019-04-06T07:54:49.247Z,9.30
2019-04-06T07:57:18.341Z,9.30
2019-04-06T07:59:47.900Z,9.20
2019-04-06T08:02:17.242Z,8.90
2019-04-06T08:04:46.287Z,8.90
2019-04-06T08:07:15.790Z,9.30
2019-04-06T08:09:44.979Z,9.90
2019-04-06T08:12:14.085Z,10.10
2019-04-06T08:14:43.187Z,10.30
2019-04-06T08:17:12.379Z,10.30
2019-04-06T08:19:41.966Z,10.20
2019-04-06T08:22:11.379Z,10.20
2019-04-06T08:24:41.306Z,9.90
2019-04-06T08:27:10.628Z,10.00
2019-04-06T08:29:40.110Z,9.60
2019-04-06T08:32:09.064Z,9.80
2019-04-06T08:34:38.556Z,10.00
2019-04-06T08:37:07.976Z,10.30
2019-04-06T08:39:37.400Z,10.60
2019-04-06T08:42:06.602Z,10.70
2019-04-06T08:44:35.538Z,10.40
2019-04-06T08:47:05.106Z,10.90
2019-04-06T08:49:34.201Z,11.40
2019-04-06T08:52:03.746Z,11.60
2019-04-06T08:54:33.011Z,11.90
2019-04-06T08:57:02.415Z,12.00
2019-04-06T08:59:32.052Z,12.00
2019-04-06T09:02:01.436Z,11.70
2019-04-06T09:04:30.928Z,11.90
2019-04-06T09:07:00.607Z,11.90
2019-04-06T09:09:30.183Z,12.10
2019-04-06T09:11:59.591Z,12.10
2019-04-06T09:14:29.757Z,12.10
2019-04-06T09:16:59.225Z,12.10
2019-04-06T09:19:28.038Z,12.20
2019-04-06T09:21:57.127Z,12.20
2019-04-06T09:24:26.358Z,12.30
2019-04-06T09:26:55.795Z,12.20
2019-04-06T09:29:25.069Z,12.20
2019-04-06T09:31:54.315Z,12.30
2019-04-06T09:34:23.600Z,12.50
2019-04-06T09:36:52.980Z,12.50
2019-04-06T09:39:22.188Z,12.90
2019-04-06T09:41:51.973Z,13.00
2019-04-06T09:44:46.379Z,13.20
2019-04-06T09:47:23.454Z,13.30
2019-04-06T09:50:26.802Z,13.30
2019-04-06T09:53:14.160Z,13.30
2019-04-06T09:56:01.859Z,13.50
2019-04-06T09:58:38.794Z,13.80
2019-04-06T10:01:37.253Z,13.10
2019-04-06T10:04:19.436Z,13.40
2019-04-06T10:07:06.904Z,13.60
2019-04-06T10:09:54.828Z,13.30
2019-04-06T10:12:33.753Z,12.70
2019-04-06T10:15:12.394Z,13.30
2019-04-06T10:17:59.297Z,13.70
2019-04-06T10:20:54.204Z,13.50
2019-04-06T10:23:36.949Z,14.00
2019-04-06T10:26:17.482Z,13.50
2019-04-06T10:28:55.071Z,13.60
2019-04-06T10:31:53.255Z,13.50
2019-04-06T10:34:37.013Z,13.50
2019-04-06T10:37:30.479Z,13.30
2019-04-06T10:40:24.754Z,13.70
2019-04-06T10:43:05.231Z,13.60
2019-04-06T10:45:53.156Z,13.40
2019-04-06T10:48:38.531Z,13.30
2019-04-06T10:51:40.555Z,12.70
2019-04-06T10:54:19.857Z,13.00
2019-04-06T10:57:05.655Z,12.70
2019-04-06T11:00:03.451Z,12.70
2019-04-06T11:02:50.650Z,13.00
2019-04-06T11:05:42.035Z,13.50
2019-04-06T11:08:43.085Z,13.20
2019-04-06T11:11:34.030Z,13.20
2019-04-06T11:14:13.316Z,13.30
2019-04-06T11:16:52.850Z,13.00
2019-04-06T11:19:31.875Z,13.10
2019-04-06T11:22:07.823Z,13.20
2019-04-06T11:24:59.702Z,13.60
2019-04-06T11:28:00.003Z,13.70
2019-04-06T11:30:46.958Z,13.90
2019-04-06T11:33:36.045Z,13.70
2019-04-06T11:36:15.652Z,13.90
2019-04-06T11:39:03.150Z,14.20
2019-04-06T11:41:57.978Z,13.70
2019-04-06T11:44:59.086Z,13.60
2019-04-06T11:47:56.384Z,13.30
2019-04-06T11:50:39.003Z,13.30
2019-04-06T11:53:26.274Z,13.50
2019-04-06T11:56:05.963Z,13.30
2019-04-06T11:58:46.892Z,13.80
2019-04-06T12:01:41.523Z,13.70
2019-04-06T12:04:32.717Z,13.70
2019-04-06T12:07:21.164Z,12.70
2019-04-06T12:10:10.884Z,12.70
2019-04-06T12:13:00.026Z,12.80
2019-04-06T12:15:46.940Z,13.00
2019-04-06T12:18:21.156Z,13.20
2019-04-06T12:21:12.433Z,13.30
2019-04-06T12:23:55.924Z,13.20
2019-04-06T12:27:02.395Z,13.30
2019-04-06T12:29:54.001Z,13.40
2019-04-06T12:32:31.126Z,13.50
2019-04-06T12:35:19.081Z,14.10
2019-04-06T12:37:58.362Z,13.60
2019-04-06T12:40:37.907Z,13.30
2019-04-06T12:43:20.702Z,13.30
2019-04-06T12:45:57.069Z,13.20
2019-04-06T12:48:49.640Z,13.50
2019-04-06T12:51:41.854Z,13.70
2019-04-06T12:54:20.249Z,14.10
2019-04-06T12:57:11.472Z,13.70
2019-04-06T12:59:57.606Z,14.00
2019-04-06T13:03:04.546Z,14.70
2019-04-06T13:05:51.739Z,14.20
2019-04-06T13:08:46.782Z,13.60
2019-04-06T13:11:34.187Z,13.60
2019-04-06T13:14:27.472Z,13.80
2019-04-06T13:17:31.125Z,13.80
2019-04-06T13:20:27.903Z,14.20
2019-04-06T13:23:18.714Z,14.00
2019-04-06T13:26:10.518Z,14.10
2019-04-06T13:28:54.563Z,14.10
2019-04-06T13:31:48.396Z,14.70
2019-04-06T13:34:26.342Z,13.70
2019-04-06T13:37:17.588Z,14.00
2019-04-06T13:39:53.939Z,14.20
2019-04-06T13:42:32.485Z,14.00
2019-04-06T13:45:10.287Z,13.90
2019-04-06T13:47:57.779Z,13.80
2019-04-06T13:50:32.431Z,13.20
2019-04-06T13:53:12.396Z,13.10
2019-04-06T13:56:03.957Z,13.10
2019-04-06T13:58:43.966Z,13.20
2019-04-06T14:01:44.883Z,13.30
2019-04-06T14:04:28.787Z,13.20
2019-04-06T14:07:16.018Z,13.50
2019-04-06T14:10:04.603Z,13.90
2019-04-06T14:13:03.617Z,14.00
2019-04-06T14:15:51.222Z,13.50
2019-04-06T14:18:45.838Z,13.50
2019-04-06T14:21:25.526Z,13.60
2019-04-06T14:24:13.867Z,13.90
2019-04-06T14:27:14.196Z,13.80
2019-04-06T14:29:49.896Z,14.00
2019-04-06T14:32:30.572Z,14.20
2019-04-06T14:35:23.278Z,14.40
2019-04-06T14:38:10.159Z,14.50
2019-04-06T14:40:50.715Z,14.40
2019-04-06T14:43:37.770Z,14.00
2019-04-06T14:46:24.719Z,14.30
2019-04-06T14:49:29.471Z,14.40
2019-04-06T14:52:09.761Z,14.60
2019-04-06T14:54:55.931Z,14.60
2019-04-06T14:57:50.344Z,14.60
2019-04-06T15:00:28.210Z,15.00
2019-04-06T15:03:18.298Z,14.60
2019-04-06T15:05:54.417Z,15.10
2019-04-06T15:08:41.367Z,15.30
2019-04-06T15:11:27.159Z,15.00
2019-04-06T15:14:18.726Z,14.30
2019-04-06T15:16:58.056Z,14.30
2019-04-06T15:19:48.738Z,14.50
2019-04-06T15:22:28.815Z,14.50
2019-04-06T15:25:06.919Z,14.60
2019-04-06T15:27:55.730Z,14.40
2019-04-06T15:30:37.330Z,14.10
2019-04-06T15:33:25.573Z,14.10
2019-04-06T15:36:02.299Z,14.10
2019-04-06T15:38:48.927Z,14.20
2019-04-06T15:41:56.513Z,14.10
2019-04-06T15:44:40.156Z,14.10
2019-04-06T15:47:40.448Z,14.10
2019-04-06T15:50:28.242Z,14.10
2019-04-06T15:53:08.683Z,14.10
2019-04-06T15:55:41.914Z,14.10
2019-04-06T15:58:19.626Z,13.90
2019-04-06T16:01:06.510Z,13.90
2019-04-06T16:03:52.788Z,13.90
2019-04-06T16:06:59.755Z,13.90
2019-04-06T16:09:46.619Z,13.90
2019-04-06T16:12:34.469Z,13.90
2019-04-06T16:15:32.278Z,13.80
2019-04-06T16:18:11.038Z,13.80
2019-04-06T16:20:51.984Z,13.80
2019-04-06T16:23:35.174Z,13.80
2019-04-06T16:26:10.353Z,13.70
2019-04-06T16:28:57.502Z,13.60
2019-04-06T16:31:45.801Z,13.60
2019-04-06T16:34:32.770Z,13.60
2019-04-06T16:37:33.830Z,13.50
2019-04-06T16:40:20.475Z,13.40
2019-04-06T16:43:07.384Z,13.20
2019-04-06T16:45:48.721Z,13.10
2019-04-06T16:48:35.676Z,13.10
2019-04-06T16:51:39.235Z,13.10
2019-04-06T16:54:30.145Z,13.00
2019-04-06T16:57:05.386Z,13.00
2019-04-06T16:59:44.906Z,12.90
2019-04-06T17:02:38.799Z,12.90
2019-04-06T17:05:20.597Z,12.90
2019-04-06T17:08:12.982Z,12.90
2019-04-06T17:11:02.435Z,12.90
2019-04-06T17:13:53.951Z,12.80
2019-04-06T17:16:32.844Z,12.70
2019-04-06T17:19:27.178Z,12.60
2019-04-06T17:22:06.841Z,12.50
2019-04-06T17:24:58.653Z,12.50
2019-04-06T17:27:35.079Z,12.40
2019-04-06T17:30:15.424Z,12.30
2019-04-06T17:32:53.307Z,12.30
2019-04-06T17:35:45.056Z,12.20
2019-04-06T17:38:39.475Z,12.20
2019-04-06T17:41:27.533Z,12.10
2019-04-06T17:44:28.924Z,11.90
2019-04-06T17:47:10.643Z,11.70
2019-04-06T17:50:14.406Z,11.40
2019-04-06T17:53:11.340Z,11.20
2019-04-06T17:56:00.013Z,10.90
2019-04-06T17:58:47.443Z,10.70
2019-04-06T18:01:37.939Z,10.40
2019-04-06T18:04:25.198Z,10.20
2019-04-06T18:07:16.630Z,10.00
2019-04-06T18:09:56.958Z,9.80
2019-04-06T18:12:42.953Z,9.70
2019-04-06T18:15:13.279Z,9.60
2019-04-06T18:17:43.796Z,9.50
2019-04-06T18:20:13.011Z,9.30
2019-04-06T18:22:42.343Z,9.20
2019-04-06T18:25:11.683Z,9.10
2019-04-06T18:27:40.830Z,9.00
2019-04-06T18:30:10.753Z,8.80
2019-04-06T18:32:58.318Z,8.70
2019-04-06T18:35:17.893Z,8.60
2019-04-06T18:37:53.851Z,8.50
2019-04-06T18:40:25.272Z,8.50
2019-04-06T18:42:54.555Z,8.40
2019-04-06T18:45:24.466Z,8.30
2019-04-06T18:47:54.220Z,8.20
2019-04-06T18:50:33.280Z,8.10
2019-04-06T18:52:54.607Z,8.10
2019-04-06T18:55:23.761Z,8.00
2019-04-06T18:57:52.683Z,7.90
2019-04-06T19:00:22.338Z,7.90
2019-04-06T19:02:51.460Z,7.80
2019-04-06T19:05:21.406Z,7.70
2019-04-06T19:07:50.410Z,7.70
2019-04-06T19:10:20.300Z,7.70
2019-04-06T19:12:49.971Z,7.70
2019-04-06T19:15:19.226Z,7.70
2019-04-06T19:17:48.778Z,7.60
2019-04-06T19:20:19.087Z,7.50
2019-04-06T19:22:49.050Z,7.50
2019-04-06T19:25:18.722Z,7.40
2019-04-06T19:27:47.989Z,7.20
2019-04-06T19:30:18.348Z,7.00
2019-04-06T19:32:48.346Z,6.90
2019-04-06T19:35:17.490Z,6.80
2019-04-06T19:37:46.706Z,6.70
2019-04-06T19:40:16.212Z,6.60
2019-04-06T19:42:45.511Z,6.50
2019-04-06T19:45:15.831Z,6.40
2019-04-06T19:47:46.110Z,6.30
2019-04-06T19:50:16.381Z,6.30
2019-04-06T19:52:45.833Z,6.30
2019-04-06T19:55:15.466Z,6.30
2019-04-06T19:57:45.205Z,6.20
2019-04-06T20:00:17.797Z,6.20
2019-04-06T20:02:47.333Z,6.10
2019-04-06T20:05:16.706Z,6.00
2019-04-06T20:07:46.833Z,6.00
2019-04-06T20:10:16.704Z,6.00
2019-04-06T20:12:45.878Z,6.00
2019-04-06T20:15:15.515Z,6.00
2019-04-06T20:17:45.290Z,6.00
2019-04-06T20:20:14.484Z,5.90
2019-04-06T20:22:43.306Z,5.90
2019-04-06T20:25:12.995Z,5.90
2019-04-06T20:27:42.143Z,5.80
2019-04-06T20:30:12.369Z,5.80
2019-04-06T20:32:41.634Z,5.90
2019-04-06T20:35:11.022Z,5.90
2019-04-06T20:37:40.269Z,5.90
2019-04-06T20:40:10.272Z,5.90
2019-04-06T20:42:39.497Z,5.90
2019-04-06T20:45:09.299Z,5.80
2019-04-06T20:47:38.730Z,5.80
2019-04-06T20:50:08.086Z,5.80
2019-04-06T20:52:37.339Z,5.80
2019-04-06T20:55:06.463Z,5.80
2019-04-06T20:57:36.362Z,5.70
2019-04-06T21:00:06.134Z,5.50
2019-04-06T21:02:35.314Z,5.50
2019-04-06T21:05:04.794Z,5.50
2019-04-06T21:07:34.675Z,5.30
2019-04-06T21:10:04.233Z,5.10
2019-04-06T21:12:33.273Z,5.00
2019-04-06T21:15:14.660Z,5.00
2019-04-06T21:17:33.206Z,5.00
2019-04-06T21:20:02.720Z,5.00
2019-04-06T21:22:31.614Z,4.90
2019-04-06T21:25:00.455Z,4.90
2019-04-06T21:27:30.433Z,4.90
2019-04-06T21:29:59.928Z,4.90
2019-04-06T21:32:29.210Z,4.90
2019-04-06T21:34:58.802Z,5.00
2019-04-06T21:37:28.150Z,4.90
2019-04-06T21:39:57.062Z,4.90
2019-04-06T21:42:26.482Z,4.90
2019-04-06T21:44:55.692Z,4.90
2019-04-06T21:47:24.848Z,4.80
2019-04-06T21:49:54.340Z,4.80
2019-04-06T21:52:23.854Z,4.90
2019-04-06T21:54:53.075Z,4.80
2019-04-06T21:57:22.950Z,4.80
2019-04-06T21:59:52.406Z,4.80
2019-04-06T22:02:21.801Z,4.70
2019-04-06T22:04:51.071Z,4.60
2019-04-06T22:07:20.455Z,4.50
2019-04-06T22:09:49.459Z,4.40
2019-04-06T22:12:18.922Z,4.30
2019-04-06T22:14:48.950Z,4.20
2019-04-06T22:17:18.800Z,4.10
2019-04-06T22:19:48.399Z,4.10
2019-04-06T22:22:18.023Z,4.10
2019-04-06T22:24:47.297Z,4.00
2019-04-06T22:27:16.259Z,3.90
2019-04-06T22:29:45.704Z,3.90
2019-04-06T22:32:14.610Z,3.90
2019-04-06T22:34:44.326Z,3.90
2019-04-06T22:37:14.030Z,3.90
2019-04-06T22:39:44.720Z,3.90
2019-04-06T22:42:14.437Z,3.90
2019-04-06T22:44:44.116Z,4.00
2019-04-06T22:47:13.964Z,4.00
2019-04-06T22:49:44.227Z,4.00
2019-04-06T22:52:13.314Z,4.10
2019-04-06T22:54:42.502Z,4.10
2019-04-06T22:57:11.400Z,4.00
2019-04-06T22:59:41.543Z,4.10
2019-04-06T23:02:11.039Z,4.20
2019-04-06T23:04:51.447Z,4.30
2019-04-06T23:07:23.496Z,4.10
2019-04-06T23:09:53.132Z,4.00
2019-04-06T23:12:22.668Z,4.00
2019-04-06T23:14:52.158Z,3.80
2019-04-06T23:17:22.422Z,3.70
2019-04-06T23:19:52.281Z,3.70
2019-04-06T23:22:21.865Z,3.60
2019-04-06T23:24:51.576Z,3.60
2019-04-06T23:27:20.835Z,3.70
2019-04-06T23:29:49.672Z,3.80
2019-04-06T23:32:18.966Z,3.80
2019-04-06T23:34:59.466Z,3.80
2019-04-06T23:37:20.071Z,3.90
2019-04-06T23:39:49.486Z,3.80
2019-04-06T23:42:18.350Z,3.80
2019-04-06T23:44:47.967Z,3.80
2019-04-06T23:47:17.190Z,3.80
2019-04-06T23:49:46.463Z,3.80
2019-04-06T23:52:15.762Z,3.80
2019-04-06T23:54:44.958Z,3.90
2019-04-06T23:57:14.182Z,3.90
2019-04-06T23:59:43.487Z,4.00
